Time;durP1;ratioP1;P1;durP2;ratioP2;P2;SDS_P1;SDS_P2;PMS_P1;PMS_P2;Temp;Humidity;BMP_temperature;BMP_pressure;BME280_temperature;BME280_humidity;BME280_pressure;Samples;Min_cycle;Max_cycle;Signal;HPM_P1;HPM_P2
2022/04/22 00:00:37;;;;;;;11.20;7.05;;;10.00;1.00;;;;;;5080653;28;20544;-52
2022/04/22 00:03:04;;;;;;;11.50;7.38;;;9.90;1.00;;;;;;5081409;28;20879;-52
2022/04/22 00:05:30;;;;;;;13.90;7.32;;;9.90;1.00;;;;;;5081508;28;20569;-52
2022/04/22 00:07:56;;;;;;;13.07;6.50;;;9.90;1.00;;;;;;5089104;28;20461;-52
2022/04/22 00:10:22;;;;;;;16.00;6.90;;;9.90;1.00;;;;;;5074682;28;20480;-52
2022/04/22 00:12:47;;;;;;;13.40;7.40;;;9.80;1.00;;;;;;5089188;28;20439;-52
2022/04/22 00:15:13;;;;;;;12.70;7.10;;;9.80;1.00;;;;;;5079818;28;20911;-53
2022/04/22 00:17:40;;;;;;;13.95;7.60;;;9.80;1.00;;;;;;5069432;28;20434;-53
2022/04/22 00:20:08;;;;;;;13.23;7.07;;;9.80;1.00;;;;;;5061031;28;20405;-53
2022/04/22 00:22:37;;;;;;;12.52;7.15;;;9.80;1.00;;;;;;5074071;28;20463;-53
2022/04/22 00:25:03;;;;;;;13.02;7.40;;;9.70;1.00;;;;;;5068970;28;20406;-53
2022/04/22 00:27:29;;;;;;;13.70;7.60;;;9.70;54.50;;;;;;5069978;28;20384;-53
2022/04/22 00:29:54;;;;;;;14.13;7.90;;;9.60;99.90;;;;;;5061084;28;20740;-53
2022/04/22 00:32:20;;;;;;;13.93;7.30;;;9.60;99.90;;;;;;5049792;28;20404;-53
2022/04/22 00:34:46;;;;;;;14.60;8.10;;;9.60;99.90;;;;;;5055487;28;20419;-53
2022/04/22 00:37:11;;;;;;;13.48;7.88;;;9.50;99.90;;;;;;5069888;28;20457;-53
2022/04/22 00:39:37;;;;;;;13.33;8.10;;;9.50;99.90;;;;;;5064141;28;20416;-53
2022/04/22 00:42:10;;;;;;;13.10;7.90;;;9.40;1.00;;;;;;5031450;28;20806;-53
2022/04/22 00:44:37;;;;;;;14.40;8.40;;;9.50;1.00;;;;;;5054961;28;21148;-53
2022/04/22 00:47:03;;;;;;;14.60;8.35;;;9.50;1.00;;;;;;5069229;28;20380;-53
2022/04/22 00:49:29;;;;;;;13.20;7.63;;;9.50;1.00;;;;;;5068220;28;20391;-53
2022/04/22 00:51:55;;;;;;;15.45;8.60;;;9.50;1.00;;;;;;5068890;28;20888;-53
2022/04/22 00:54:21;;;;;;;15.87;9.57;;;9.50;1.00;;;;;;5065997;28;20397;-53
2022/04/22 00:56:50;;;;;;;15.55;8.77;;;9.50;1.00;;;;;;5048845;28;20862;-53
2022/04/22 00:59:16;;;;;;;15.23;8.30;;;9.40;1.00;;;;;;5033214;28;20839;-53
2022/04/22 01:01:42;;;;;;;14.88;8.20;;;9.40;1.00;;;;;;5048846;28;20871;-53
2022/04/22 01:09:47;;;;;;;17.30;9.00;;;9.30;1.00;;;;;;5044008;28;20422;-53
2022/04/22 01:12:15;;;;;;;15.57;8.90;;;9.30;1.00;;;;;;5051651;28;20381;-53
2022/04/22 01:14:44;;;;;;;15.75;9.35;;;9.20;99.90;;;;;;5049340;28;20397;-53
2022/04/22 01:17:10;;;;;;;16.02;9.30;;;9.10;1.00;;;;;;5051119;28;20397;-52
2022/04/22 01:19:36;;;;;;;15.30;8.80;;;9.00;1.00;;;;;;5049598;28;20385;-52
2022/04/22 01:22:02;;;;;;;16.60;9.20;;;8.90;99.90;;;;;;5059471;28;20769;-52
2022/04/22 01:24:28;;;;;;;18.13;10.05;;;9.00;99.90;;;;;;5069244;28;20423;-52
2022/04/22 01:26:55;;;;;;;17.75;10.23;;;8.90;49.80;;;;;;5030511;28;20400;-53
2022/04/22 01:29:21;;;;;;;17.42;10.40;;;9.00;1.00;;;;;;5049007;28;20763;-52
2022/04/22 01:31:47;;;;;;;16.93;10.17;;;8.90;99.90;;;;;;5067702;28;20426;-53
2022/04/22 01:34:14;;;;;;;15.80;9.43;;;8.90;99.90;;;;;;5034852;28;20388;-52
2022/04/22 01:36:39;;;;;;;15.33;9.80;;;8.90;99.90;;;;;;5065093;28;20466;-52
2022/04/22 01:39:05;;;;;;;16.00;9.93;;;8.90;99.90;;;;;;5048711;28;20417;-52
2022/04/22 01:41:31;;;;;;;19.67;10.35;;;8.80;1.00;;;;;;5065986;28;21160;-52
2022/04/22 01:43:57;;;;;;;17.60;9.83;;;8.70;1.00;;;;;;5069840;28;20375;-53
2022/04/22 01:46:23;;;;;;;19.08;10.50;;;8.80;1.00;;;;;;5072306;28;20409;-52
2022/04/22 01:48:49;;;;;;;17.10;10.48;;;8.70;99.90;;;;;;5071663;28;20419;-52
2022/04/22 01:51:14;;;;;;;17.20;10.38;;;8.70;99.90;;;;;;5072848;28;20423;-52
2022/04/22 01:53:41;;;;;;;17.30;10.80;;;8.70;46.80;;;;;;5071368;28;20387;-52
2022/04/22 01:56:06;;;;;;;18.23;11.30;;;9.00;1.00;;;;;;5072446;28;20400;-53
2022/04/22 01:58:35;;;;;;;18.00;10.98;;;8.80;1.00;;;;;;5071550;28;20428;-52
2022/04/22 02:01:00;;;;;;;19.23;11.30;;;8.80;1.00;;;;;;5052126;28;20397;-53
2022/04/22 02:03:26;;;;;;;21.83;11.03;;;8.80;1.00;;;;;;5052825;28;20385;-53
2022/04/22 02:05:52;;;;;;;18.50;11.10;;;8.80;1.00;;;;;;5057331;28;20405;-53
2022/04/22 02:08:17;;;;;;;20.00;11.87;;;8.70;1.00;;;;;;5053093;28;20369;-52
2022/04/22 02:10:43;;;;;;;20.92;10.90;;;8.70;1.00;;;;;;5071500;28;20392;-53
2022/04/22 02:13:09;;;;;;;18.80;10.60;;;8.70;99.90;;;;;;5072172;28;20386;-53
2022/04/22 02:15:35;;;;;;;19.23;11.00;;;8.60;99.90;;;;;;5071544;28;20414;-53
2022/04/22 02:18:01;;;;;;;21.30;12.47;;;8.60;1.00;;;;;;5071924;28;20392;-53
2022/04/22 02:20:27;;;;;;;19.92;11.95;;;8.50;1.00;;;;;;5070737;28;20402;-53
2022/04/22 02:22:53;;;;;;;20.42;11.20;;;8.60;99.90;;;;;;5072252;28;20419;-52
2022/04/22 02:25:18;;;;;;;22.80;11.87;;;8.60;99.90;;;;;;5054913;28;20395;-53
2022/04/22 02:30:28;;;;;;;21.27;11.63;;;8.80;1.00;;;;;;5053279;28;20625;-53
2022/04/22 02:32:54;;;;;;;18.40;11.80;;;8.50;1.00;;;;;;5050923;28;20873;-53
2022/04/22 02:35:21;;;;;;;19.17;11.90;;;8.50;1.00;;;;;;5069500;28;20443;-53
2022/04/22 02:37:48;;;;;;;21.27;11.50;;;8.50;1.00;;;;;;5071271;28;20853;-55
2022/04/22 02:45:26;;;;;;;19.97;12.43;;;8.50;1.00;;;;;;5070607;28;20749;-53
2022/04/22 02:45:44;;;;;;;20.45;11.55;;;8.30;92.50;;;;;;5071787;28;20406;-53
2022/04/22 02:48:10;;;;;;;20.50;11.90;;;8.20;1.00;;;;;;5071867;28;20380;-53
2022/04/22 02:50:35;;;;;;;21.20;11.60;;;8.00;1.00;;;;;;5052182;28;20401;-53
2022/04/22 02:53:01;;;;;;;20.73;11.90;;;7.90;99.90;;;;;;5051145;28;20945;-53
2022/04/22 02:55:26;;;;;;;18.33;11.45;;;7.80;44.60;;;;;;5052735;28;20420;-52
2022/04/22 02:57:53;;;;;;;19.77;11.10;;;8.00;94.40;;;;;;5051222;28;20424;-52
2022/04/22 03:00:18;;;;;;;19.20;11.30;;;7.70;99.90;;;;;;5052840;28;20393;-53
2022/04/22 03:02:44;;;;;;;19.73;11.13;;;7.70;99.90;;;;;;5051073;28;20369;-52
2022/04/22 03:05:10;;;;;;;18.60;11.00;;;7.90;52.40;;;;;;5067980;28;20879;-52
2022/04/22 03:07:37;;;;;;;18.87;11.37;;;7.60;99.90;;;;;;5071895;28;20372;-52
2022/04/22 03:10:04;;;;;;;19.83;11.00;;;7.50;1.00;;;;;;5069424;28;20659;-53
2022/04/22 03:12:30;;;;;;;19.27;11.05;;;7.40;1.00;;;;;;5069948;28;20479;-53
2022/04/22 03:14:56;;;;;;;21.10;11.98;;;7.30;1.00;;;;;;5070642;28;20486;-53
2022/04/22 03:17:23;;;;;;;20.95;12.20;;;7.20;99.90;;;;;;5071429;28;20431;-53
2022/04/22 03:19:49;;;;;;;18.23;11.70;;;7.10;1.00;;;;;;5070304;28;20391;-53
2022/04/22 03:22:16;;;;;;;18.67;11.60;;;7.10;1.00;;;;;;5074931;28;20485;-52
2022/04/22 03:24:42;;;;;;;22.83;11.68;;;7.10;1.00;;;;;;5091810;28;20375;-52
2022/04/22 03:27:08;;;;;;;20.23;11.43;;;7.10;1.00;;;;;;5072441;28;20449;-52
2022/04/22 03:29:35;;;;;;;21.38;11.63;;;7.00;11.10;;;;;;5071317;28;20388;-50
2022/04/22 03:32:01;;;;;;;21.80;11.90;;;7.00;27.90;;;;;;5081478;28;20398;-50
2022/04/22 03:34:27;;;;;;;21.73;12.38;;;7.00;92.40;;;;;;5072180;28;20379;-50
2022/04/22 03:36:53;;;;;;;21.57;12.30;;;6.90;99.90;;;;;;5071538;28;20441;-50
2022/04/22 03:39:18;;;;;;;22.23;12.38;;;6.90;99.90;;;;;;5074142;28;20427;-50
2022/04/22 03:41:44;;;;;;;22.73;12.85;;;6.90;99.90;;;;;;5075581;28;20440;-50
2022/04/22 03:44:10;;;;;;;23.63;12.73;;;6.90;99.90;;;;;;5070761;28;20451;-51
2022/04/22 03:46:36;;;;;;;22.70;13.37;;;6.90;99.90;;;;;;5070845;28;20801;-50
2022/04/22 03:49:04;;;;;;;23.83;12.55;;;6.80;99.90;;;;;;5076063;28;20393;-50
2022/04/22 03:51:30;;;;;;;22.00;13.23;;;6.60;99.90;;;;;;5089684;28;20401;-50
2022/04/22 03:53:56;;;;;;;24.65;13.05;;;6.70;99.90;;;;;;5089940;28;20401;-50
2022/04/22 03:59:06;;;;;;;22.02;13.80;;;6.60;99.90;;;;;;5069599;28;20368;-51
2022/04/22 04:01:32;;;;;;;23.13;13.10;;;6.60;99.90;;;;;;5083811;28;20494;-50
2022/04/22 04:03:58;;;;;;;27.90;14.30;;;6.60;99.90;;;;;;5089696;28;20381;-51
2022/04/22 04:06:24;;;;;;;22.73;13.50;;;6.60;99.90;;;;;;5076644;28;20884;-50
2022/04/22 04:17:06;;;;;;;27.23;14.52;;;5.40;1.00;;;;;;5070097;28;20398;-51
2022/04/22 04:25:00;;;;;;;23.80;13.00;;;6.40;1.00;;;;;;5070442;28;20507;-51
2022/04/22 04:27:25;;;;;;;25.48;14.50;;;6.40;99.90;;;;;;5072509;28;20776;-51
2022/04/22 04:29:51;;;;;;;26.70;14.70;;;6.40;99.90;;;;;;5088951;28;20374;-51
2022/04/22 04:32:17;;;;;;;26.00;14.35;;;6.40;99.90;;;;;;5070820;28;20394;-51
2022/04/22 04:34:44;;;;;;;25.73;13.63;;;6.30;99.90;;;;;;5071983;28;20388;-51
2022/04/22 04:37:10;;;;;;;24.50;13.40;;;6.30;99.90;;;;;;5087512;28;20756;-51
2022/04/22 04:39:36;;;;;;;25.67;13.80;;;6.30;99.90;;;;;;5090238;28;20444;-51
2022/04/22 04:42:02;;;;;;;27.83;15.02;;;6.30;99.90;;;;;;5087445;28;20863;-51
2022/04/22 04:44:28;;;;;;;26.23;15.37;;;6.10;1.00;;;;;;5090085;28;20458;-51
2022/04/22 04:46:54;;;;;;;29.95;15.25;;;6.10;1.00;;;;;;5080470;28;20416;-51
2022/04/22 04:49:21;;;;;;;29.17;15.53;;;6.20;1.00;;;;;;5089403;28;20713;-51
2022/04/22 04:51:46;;;;;;;31.20;16.98;;;6.30;1.00;;;;;;5072808;28;20995;-51
2022/04/22 04:54:12;;;;;;;32.67;17.53;;;6.30;1.00;;;;;;5069384;28;20411;-51
2022/04/22 04:56:38;;;;;;;29.60;17.38;;;6.40;1.00;;;;;;5081941;28;20458;-51
2022/04/22 04:59:03;;;;;;;30.87;17.83;;;6.50;1.00;;;;;;5086144;28;20823;-51
2022/04/22 05:01:29;;;;;;;31.83;17.95;;;6.60;1.00;;;;;;5083230;28;20394;-51
2022/04/22 05:03:55;;;;;;;31.37;17.70;;;6.70;1.00;;;;;;5083921;28;20382;-51
2022/04/22 05:06:20;;;;;;;32.58;18.25;;;6.80;1.00;;;;;;5089155;28;20452;-51
2022/04/22 05:08:46;;;;;;;32.63;18.05;;;5.80;1.00;;;;;;5089509;28;20382;-51
2022/04/22 05:11:12;;;;;;;34.60;17.90;;;7.00;1.00;;;;;;5081367;28;20423;-51
2022/04/22 05:13:37;;;;;;;34.58;18.50;;;7.10;1.00;;;;;;5066600;28;20385;-51
2022/04/22 05:16:03;;;;;;;31.60;17.87;;;7.30;1.00;;;;;;5088782;28;20421;-51
2022/04/22 05:18:30;;;;;;;33.53;18.23;;;7.40;1.00;;;;;;5071332;28;20489;-51
2022/04/22 05:20:56;;;;;;;31.30;16.50;;;7.70;1.00;;;;;;5068022;28;20418;-51
2022/04/22 05:23:21;;;;;;;30.55;16.77;;;7.90;1.00;;;;;;5093606;28;20386;-53
2022/04/22 05:25:48;;;;;;;32.58;18.13;;;8.20;99.90;;;;;;5087038;28;20390;-54
2022/04/22 05:28:14;;;;;;;32.83;17.70;;;8.40;99.90;;;;;;5074506;28;20895;-52
2022/04/22 05:33:23;;;;;;;31.38;17.70;;;9.00;99.90;;;;;;5072863;28;20597;-54
2022/04/22 05:35:49;;;;;;;29.35;18.17;;;9.00;99.90;;;;;;5090333;28;20405;-53
2022/04/22 05:38:15;;;;;;;30.67;17.73;;;9.10;99.90;;;;;;5093054;28;20471;-54
2022/04/22 05:40:44;;;;;;;27.67;16.80;;;9.50;99.90;;;;;;5091356;28;20428;-53
2022/04/22 05:43:10;;;;;;;31.10;18.25;;;9.90;99.90;;;;;;5092889;28;20393;-52
2022/04/22 05:45:39;;;;;;;29.17;17.20;;;10.20;99.90;;;;;;5076252;28;20407;-52
2022/04/22 05:48:05;;;;;;;28.38;17.00;;;10.80;99.90;;;;;;5053377;28;20887;-52
2022/04/22 05:50:31;;;;;;;28.48;16.60;;;11.70;99.90;;;;;;5075288;28;20409;-52
2022/04/22 05:52:57;;;;;;;28.20;16.97;;;13.10;99.90;;;;;;5054154;28;20960;-53
2022/04/22 05:55:25;;;;;;;23.63;16.13;;;14.20;99.90;;;;;;5073706;28;20477;-52
2022/04/22 05:57:53;;;;;;;23.97;16.50;;;15.40;99.90;;;;;;5072160;28;20384;-53
2022/04/22 06:00:20;;;;;;;26.48;17.63;;;15.60;99.90;;;;;;5088342;28;20410;-52
2022/04/22 06:02:46;;;;;;;30.13;18.02;;;15.40;99.90;;;;;;5090988;28;20386;-53
2022/04/22 06:05:14;;;;;;;26.42;17.80;;;14.90;99.90;;;;;;5081284;28;20402;-53
2022/04/22 06:07:41;;;;;;;31.13;17.40;;;14.50;99.90;;;;;;5082404;28;20388;-53
2022/04/22 06:12:53;;;;;;;30.70;17.10;;;14.30;99.90;;;;;;5091529;28;20482;-53
2022/04/22 06:15:19;;;;;;;28.92;18.13;;;15.00;99.90;;;;;;5092605;28;20406;-53
2022/04/22 06:17:45;;;;;;;28.38;17.95;;;15.20;99.80;;;;;;5093656;28;20515;-53
2022/04/22 06:20:11;;;;;;;27.52;17.65;;;15.20;99.80;;;;;;5091546;28;20501;-53
2022/04/22 06:22:37;;;;;;;27.55;17.85;;;15.40;99.20;;;;;;5069248;28;20413;-53
2022/04/22 06:25:03;;;;;;;27.92;17.90;;;15.10;99.40;;;;;;5035613;28;20472;-54
2022/04/22 06:27:37;;;;;;;26.30;17.20;;;15.00;99.80;;;;;;5052581;28;20389;-54
2022/04/22 06:30:07;;;;;;;26.48;18.10;;;15.20;99.40;;;;;;5055499;28;20398;-54
2022/04/22 06:32:34;;;;;;;27.52;17.05;;;15.50;98.50;;;;;;5052763;28;20385;-53
2022/04/22 06:34:59;;;;;;;26.10;17.00;;;15.40;98.50;;;;;;5065078;28;20400;-54
2022/04/22 06:37:25;;;;;;;26.42;18.00;;;15.70;97.70;;;;;;5072323;28;20445;-52
2022/04/22 06:48:06;;;;;;;25.50;18.73;;;17.70;93.20;;;;;;5052973;28;20843;-52
2022/04/22 06:50:32;;;;;;;25.02;17.70;;;17.80;92.60;;;;;;5051870;28;20943;-53
2022/04/22 06:52:58;;;;;;;27.02;18.88;;;17.70;92.50;;;;;;5063781;28;20391;-52
2022/04/22 06:55:24;;;;;;;26.37;18.07;;;17.70;92.00;;;;;;5072034;28;20453;-52
2022/04/22 06:57:51;;;;;;;25.83;18.88;;;18.00;91.90;;;;;;5059646;28;20443;-52
2022/04/22 07:00:18;;;;;;;25.73;18.27;;;18.40;92.80;;;;;;5056925;28;20400;-52
2022/04/22 07:02:47;;;;;;;28.40;19.85;;;18.50;93.10;;;;;;5061412;28;20394;-52
2022/04/22 07:05:13;;;;;;;25.90;18.45;;;18.20;93.30;;;;;;5051483;28;20917;-52
2022/04/22 07:07:40;;;;;;;27.90;18.35;;;18.50;93.10;;;;;;5051362;28;20828;-51
2022/04/22 07:10:06;;;;;;;25.17;18.60;;;18.00;92.70;;;;;;5051658;28;20395;-52
2022/04/22 07:12:32;;;;;;;25.20;18.80;;;17.50;93.20;;;;;;5071206;28;20372;-52
2022/04/22 07:15:06;;;;;;;24.57;17.90;;;18.30;95.50;;;;;;5052526;28;20456;-53
2022/04/22 07:17:36;;;;;;;26.93;19.13;;;18.90;93.90;;;;;;5071354;28;20394;-52
2022/04/22 07:20:09;;;;;;;26.95;19.23;;;18.30;93.60;;;;;;5068861;28;20392;-52
2022/04/22 07:22:39;;;;;;;28.13;18.58;;;18.30;93.80;;;;;;5070729;28;20869;-52
2022/04/22 07:25:11;;;;;;;25.65;18.00;;;18.40;93.60;;;;;;5062622;28;20890;-52
2022/04/22 07:27:40;;;;;;;26.83;18.33;;;19.10;92.70;;;;;;5055622;28;20969;-51
2022/04/22 07:30:09;;;;;;;25.65;18.58;;;18.90;91.90;;;;;;5047574;28;20395;-52
2022/04/22 07:32:37;;;;;;;26.25;18.83;;;18.60;92.00;;;;;;5070217;28;20430;-52
2022/04/22 07:35:05;;;;;;;24.75;18.42;;;18.60;92.30;;;;;;5069445;28;20415;-53
2022/04/22 07:37:31;;;;;;;25.97;18.73;;;19.10;91.20;;;;;;5056501;28;20883;-53
2022/04/22 07:39:57;;;;;;;25.20;18.92;;;19.30;91.00;;;;;;5050295;28;20393;-53
2022/04/22 07:42:23;;;;;;;27.10;19.80;;;19.90;93.00;;;;;;5032220;28;20389;-52
2022/04/22 07:47:38;;;;;;;25.95;19.90;;;21.00;91.70;;;;;;5053279;28;20817;-53
2022/04/22 07:50:05;;;;;;;26.65;19.50;;;19.70;90.30;;;;;;5052995;28;20399;-53
2022/04/22 07:52:37;;;;;;;26.20;19.88;;;19.60;90.70;;;;;;5070144;28;20383;-53
2022/04/22 07:55:04;;;;;;;25.27;19.00;;;19.50;91.20;;;;;;5062368;28;20926;-53
2022/04/22 07:57:30;;;;;;;28.73;20.47;;;19.30;91.40;;;;;;5053130;28;20493;-53
2022/04/22 07:59:57;;;;;;;26.52;19.35;;;19.30;90.90;;;;;;5050559;28;20382;-52
2022/04/22 08:02:23;;;;;;;26.08;19.15;;;19.50;91.10;;;;;;5069525;28;20388;-53
2022/04/22 08:04:49;;;;;;;24.52;19.42;;;19.40;91.10;;;;;;5070463;28;20372;-53
2022/04/22 08:07:16;;;;;;;24.80;17.20;;;20.20;91.40;;;;;;5043848;28;20860;-54
2022/04/22 08:09:44;;;;;;;25.05;17.27;;;20.50;89.00;;;;;;5061820;28;20481;-53
2022/04/22 08:12:12;;;;;;;24.20;16.70;;;20.20;89.80;;;;;;5069711;28;20407;-55
2022/04/22 08:14:38;;;;;;;23.83;17.08;;;20.50;87.80;;;;;;5056775;28;20890;-55
2022/04/22 08:17:04;;;;;;;26.75;17.83;;;21.00;87.90;;;;;;5050059;28;20421;-55
2022/04/22 08:19:30;;;;;;;23.77;17.00;;;21.80;90.70;;;;;;5032400;28;20811;-53
2022/04/22 08:21:57;;;;;;;27.00;17.27;;;22.50;90.60;;;;;;5058985;28;20489;-53
2022/04/22 08:24:23;;;;;;;25.08;17.40;;;;;;;;;;5070546;28;20402;-53
2022/04/22 08:26:50;;;;;;;22.48;17.52;;;23.10;64.80;;;;;;5070671;28;20380;-54
2022/04/22 08:29:15;;;;;;;22.60;17.30;;;23.30;63.80;;;;;;5055565;28;20392;-53
2022/04/22 08:31:42;;;;;;;25.50;18.80;;;23.10;62.40;;;;;;5070566;28;20737;-53
2022/04/22 08:34:07;;;;;;;24.10;18.07;;;22.40;99.90;;;;;;5069404;28;20447;-53
2022/04/22 08:36:33;;;;;;;23.60;17.15;;;22.30;99.90;;;;;;5071969;28;20501;-53
2022/04/22 08:38:59;;;;;;;22.23;17.13;;;22.20;99.90;;;;;;5068744;28;20397;-54
2022/04/22 08:41:26;;;;;;;25.55;17.45;;;22.90;99.90;;;;;;5068810;28;20443;-54
2022/04/22 08:43:56;;;;;;;24.02;19.50;;;23.50;99.90;;;;;;5068331;28;20837;-54
2022/04/22 08:51:54;;;;;;;23.05;16.08;;;23.70;99.90;;;;;;5068403;28;20449;-54
2022/04/22 08:54:21;;;;;;;22.50;16.42;;;24.00;99.90;;;;;;5068049;28;20396;-54
2022/04/22 08:56:52;;;;;;;22.30;17.52;;;25.20;99.90;;;;;;5051312;28;20404;-54
2022/04/22 08:59:18;;;;;;;23.77;16.87;;;24.80;1.00;;;;;;5069073;28;20418;-54
2022/04/22 09:01:44;;;;;;;22.80;17.25;;;24.90;1.00;;;;;;5068746;28;20427;-54
2022/04/22 09:04:10;;;;;;;23.30;17.20;;;25.30;1.00;;;;;;5068326;28;20862;-54
2022/04/22 09:06:37;;;;;;;23.52;19.45;;;26.70;1.00;;;;;;5067546;28;20406;-54
2022/04/22 09:09:04;;;;;;;23.20;19.00;;;26.60;1.00;;;;;;5068339;28;20380;-54
2022/04/22 09:11:31;;;;;;;24.60;19.23;;;25.50;1.00;;;;;;5069734;28;20422;-54
2022/04/22 09:14:00;;;;;;;24.50;20.38;;;25.40;1.00;;;;;;5068435;28;20398;-54
2022/04/22 09:16:26;;;;;;;22.27;18.40;;;25.40;1.00;;;;;;5062794;28;20431;-54
2022/04/22 09:19:00;;;;;;;25.40;20.70;;;25.00;99.90;;;;;;5068586;28;20399;-54
2022/04/22 09:21:29;;;;;;;24.00;20.88;;;26.20;1.00;;;;;;5068930;28;20882;-55
2022/04/22 09:23:54;;;;;;;23.92;19.13;;;25.00;99.90;;;;;;5068269;28;20869;-54
2022/04/22 09:26:24;;;;;;;23.73;18.43;;;24.10;99.90;;;;;;5065035;28;20392;-54
2022/04/22 09:29:05;;;;;;;25.77;19.05;;;24.40;99.90;;;;;;5065001;28;20479;-54
2022/04/22 09:31:45;;;;;;;23.30;19.30;;;25.00;99.90;;;;;;5061717;28;20392;-55
2022/04/22 09:34:10;;;;;;;22.55;19.58;;;24.80;99.90;;;;;;5054929;28;20373;-54
2022/04/22 09:44:57;;;;;;;21.75;19.30;;;26.00;99.90;;;;;;5054668;28;20394;-55
2022/04/22 09:47:30;;;;;;;23.67;20.00;;;25.40;99.90;;;;;;5069100;28;20407;-55
2022/04/22 09:49:57;;;;;;;22.55;19.17;;;25.80;99.90;;;;;;5065656;28;20788;-57
2022/04/22 09:52:34;;;;;;;22.38;18.90;;;25.50;99.90;;;;;;5061121;28;20441;-54
2022/04/22 09:55:08;;;;;;;21.95;19.33;;;23.60;99.90;;;;;;5068180;28;20509;-55
2022/04/22 09:57:54;;;;;;;24.07;17.67;;;23.20;99.90;;;;;;5070963;28;20416;-54
2022/04/22 10:00:21;;;;;;;23.10;17.50;;;24.10;99.90;;;;;;5069180;28;20380;-54
2022/04/22 10:02:52;;;;;;;24.50;18.00;;;25.60;99.90;;;;;;5068411;28;20929;-54
2022/04/22 10:05:20;;;;;;;21.23;18.02;;;25.30;99.90;;;;;;5070228;28;20468;-55
2022/04/22 10:07:51;;;;;;;21.58;18.25;;;25.30;99.90;;;;;;5072468;28;20732;-54
2022/04/22 10:10:24;;;;;;;21.52;17.40;;;24.00;99.90;;;;;;5067702;28;20454;-54
2022/04/22 10:12:54;;;;;;;23.13;17.33;;;23.80;99.90;;;;;;5053468;28;20382;-54
2022/04/22 10:15:21;;;;;;;21.92;17.27;;;23.50;99.90;;;;;;5072221;28;20399;-54
2022/04/22 10:17:48;;;;;;;22.13;17.98;;;23.00;99.90;;;;;;5056680;28;20392;-54
2022/04/22 10:20:14;;;;;;;22.73;18.33;;;23.10;99.90;;;;;;5051644;28;20536;-54
2022/04/22 10:22:41;;;;;;;21.17;16.73;;;22.90;99.90;;;;;;5081000;28;20506;-54
2022/04/22 10:25:09;;;;;;;21.88;17.63;;;23.20;99.90;;;;;;5084561;28;20450;-54
2022/04/22 10:27:37;;;;;;;20.88;17.23;;;23.80;99.90;;;;;;5074516;28;20386;-54
2022/04/22 10:30:05;;;;;;;21.75;18.77;;;23.40;99.90;;;;;;5085072;28;20463;-54
2022/04/22 10:32:33;;;;;;;21.00;17.30;;;22.40;99.90;;;;;;5077989;28;20906;-54
2022/04/22 10:35:03;;;;;;;23.83;18.20;;;22.70;99.90;;;;;;5084314;28;20498;-54
2022/04/22 10:37:31;;;;;;;20.75;17.55;;;22.50;99.90;;;;;;5076082;28;20415;-54
2022/04/22 10:39:58;;;;;;;23.23;17.95;;;22.70;99.90;;;;;;5071188;28;20388;-57
2022/04/22 10:42:34;;;;;;;21.53;18.43;;;22.50;99.90;;;;;;5072138;28;20383;-54
2022/04/22 10:47:51;;;;;;;25.08;18.85;;;21.20;1.00;;;;;;5072085;28;20433;-54
2022/04/22 10:50:35;;;;;;;23.55;19.17;;;20.70;99.90;;;;;;5071444;28;20448;-54
2022/04/22 10:53:09;;;;;;;22.85;17.63;;;20.30;99.90;;;;;;5080774;28;20463;-54
2022/04/22 10:55:39;;;;;;;21.05;17.10;;;20.50;99.90;;;;;;5077675;28;20529;-54
2022/04/22 10:58:14;;;;;;;22.80;18.50;;;20.70;99.90;;;;;;5085589;28;20411;-54
2022/04/22 11:00:42;;;;;;;22.47;17.23;;;20.80;99.90;;;;;;5064485;28;20396;-55
2022/04/22 11:03:20;;;;;;;24.00;18.27;;;21.10;99.90;;;;;;5071363;28;20410;-54
2022/04/22 11:05:48;;;;;;;25.00;18.50;;;20.40;99.90;;;;;;5073628;28;20398;-54
2022/04/22 11:08:29;;;;;;;23.42;17.98;;;20.10;99.90;;;;;;5086653;28;20389;-53
2022/04/22 11:10:54;;;;;;;23.45;17.63;;;19.80;99.90;;;;;;5084788;28;20392;-53
2022/04/22 11:13:30;;;;;;;21.07;17.37;;;19.90;99.90;;;;;;5085640;28;20390;-54
2022/04/22 11:16:05;;;;;;;24.10;17.90;;;20.10;99.90;;;;;;5081208;28;20421;-54
2022/04/22 11:18:31;;;;;;;23.20;17.90;;;20.70;99.90;;;;;;5074337;28;20383;-53
2022/04/22 11:21:09;;;;;;;22.00;17.08;;;20.80;99.90;;;;;;5069605;28;20883;-54
2022/04/22 11:23:44;;;;;;;23.60;17.55;;;20.80;99.90;;;;;;5067282;28;20388;-54
2022/04/22 11:26:14;;;;;;;24.88;18.90;;;20.70;99.90;;;;;;5060611;28;20399;-54
2022/04/22 11:28:41;;;;;;;23.02;17.50;;;21.00;99.90;;;;;;5067300;28;20452;-55
2022/04/22 11:31:10;;;;;;;23.58;17.25;;;21.00;99.90;;;;;;5070699;28;20396;-54
2022/04/22 11:33:57;;;;;;;23.65;18.00;;;20.70;99.90;;;;;;5062394;28;20398;-54
2022/04/22 11:36:24;;;;;;;22.80;17.83;;;20.90;99.90;;;;;;5065404;28;20450;-54
2022/04/22 11:38:55;;;;;;;22.77;17.40;;;21.20;99.90;;;;;;5062727;28;20394;-54
2022/04/22 11:41:22;;;;;;;21.63;17.73;;;21.60;99.90;;;;;;5065109;28;21657;-54
2022/04/22 11:43:48;;;;;;;24.23;17.10;;;21.40;99.90;;;;;;5062983;28;20412;-54
2022/04/22 11:46:16;;;;;;;23.30;17.17;;;21.40;99.90;;;;;;5063966;28;20392;-54
2022/04/22 11:48:49;;;;;;;20.60;16.83;;;21.40;99.90;;;;;;5060627;28;20389;-54
2022/04/22 11:51:17;;;;;;;24.58;17.42;;;21.30;99.90;;;;;;5069544;28;20452;-54
2022/04/22 11:53:51;;;;;;;21.92;17.05;;;21.50;99.90;;;;;;5067825;28;20461;-53
2022/04/22 11:56:19;;;;;;;20.63;17.10;;;21.70;99.90;;;;;;5058799;28;21111;-54
2022/04/22 11:58:45;;;;;;;19.05;15.93;;;21.50;99.90;;;;;;5063363;28;20401;-53
2022/04/22 12:06:42;;;;;;;21.23;16.70;;;20.60;99.90;;;;;;5060310;28;20410;-53
2022/04/22 12:09:08;;;;;;;20.42;16.50;;;21.70;99.90;;;;;;5065429;28;20384;-53
2022/04/22 12:11:42;;;;;;;20.98;16.20;;;21.60;99.90;;;;;;5059836;28;20404;-53
2022/04/22 12:14:09;;;;;;;20.95;15.93;;;21.70;99.90;;;;;;5059081;28;20403;-53
2022/04/22 12:16:35;;;;;;;23.05;16.60;;;21.40;99.90;;;;;;5061934;28;20469;-53
2022/04/22 12:19:01;;;;;;;20.67;17.70;;;21.50;99.90;;;;;;5060392;28;20391;-54
2022/04/22 12:21:32;;;;;;;22.30;17.33;;;21.20;99.90;;;;;;5066983;28;20408;-54
2022/04/22 12:24:04;;;;;;;19.98;16.42;;;21.00;99.90;;;;;;5070106;28;20417;-53
2022/04/22 12:26:34;;;;;;;21.58;16.73;;;21.00;99.90;;;;;;5069987;28;20449;-53
2022/04/22 12:29:13;;;;;;;18.02;14.98;;;21.30;99.90;;;;;;5047589;28;20443;-53
2022/04/22 12:31:43;;;;;;;18.93;14.30;;;21.20;99.90;;;;;;5070126;28;20375;-53
2022/04/22 12:34:12;;;;;;;17.83;14.53;;;21.20;99.90;;;;;;5070085;28;20384;-53
2022/04/22 12:36:53;;;;;;;19.97;15.40;;;21.70;99.90;;;;;;5069605;28;20438;-54
2022/04/22 12:39:38;;;;;;;22.48;16.13;;;21.90;99.90;;;;;;5068222;28;20411;-53
2022/04/22 12:42:26;;;;;;;20.48;15.68;;;22.00;99.90;;;;;;5068373;28;20741;-53
2022/04/22 12:53:50;;;;;;;17.25;14.23;;;20.60;99.90;;;;;;5060507;28;20869;-53
2022/04/22 12:56:24;;;;;;;19.20;14.80;;;21.00;99.90;;;;;;5057711;28;20510;-53
2022/04/22 12:58:55;;;;;;;17.92;13.57;;;21.40;99.90;;;;;;5058300;28;20416;-53
2022/04/22 13:01:34;;;;;;;20.67;14.48;;;21.60;99.90;;;;;;5057897;28;20407;-53
2022/04/22 13:04:00;;;;;;;18.92;14.18;;;21.50;99.90;;;;;;5056361;28;20406;-53
2022/04/22 13:06:41;;;;;;;17.70;14.93;;;21.60;99.90;;;;;;5064177;28;20386;-53
2022/04/22 13:09:09;;;;;;;16.30;14.25;;;21.70;99.90;;;;;;5062057;28;20392;-53
2022/04/22 13:11:35;;;;;;;18.60;14.52;;;21.90;99.90;;;;;;5058682;28;20870;-53
2022/04/22 13:14:01;;;;;;;19.05;15.50;;;21.60;99.90;;;;;;5063002;28;20403;-53
2022/04/22 13:16:28;;;;;;;20.88;15.50;;;21.30;99.90;;;;;;5062794;28;20494;-53
2022/04/22 13:18:58;;;;;;;18.90;14.40;;;21.40;99.90;;;;;;5040357;28;20431;-53
2022/04/22 13:21:24;;;;;;;19.95;16.40;;;21.50;99.90;;;;;;5056928;28;20439;-53
2022/04/22 13:23:53;;;;;;;16.70;14.23;;;21.60;99.90;;;;;;5082135;28;20776;-53
2022/04/22 13:26:20;;;;;;;17.50;15.07;;;21.50;99.90;;;;;;5087247;28;20452;-53
2022/04/22 13:28:45;;;;;;;17.73;15.60;;;22.50;99.90;;;;;;5086817;28;20754;-53
2022/04/22 13:31:12;;;;;;;19.13;14.67;;;20.90;99.90;;;;;;5080023;28;20401;-53
2022/04/22 13:33:40;;;;;;;16.90;14.35;;;21.00;99.90;;;;;;5079501;28;20396;-53
2022/04/22 13:36:11;;;;;;;17.50;14.50;;;21.40;99.90;;;;;;5080912;28;20410;-53
2022/04/22 13:38:37;;;;;;;17.40;13.57;;;21.60;99.90;;;;;;5069639;28;20445;-53
2022/04/22 13:41:06;;;;;;;18.10;14.45;;;21.80;99.90;;;;;;5071535;28;20411;-53
2022/04/22 13:43:33;;;;;;;18.25;15.10;;;21.90;99.90;;;;;;5072528;28;20726;-53
2022/04/22 13:54:18;;;;;;;19.77;15.90;;;21.20;99.90;;;;;;5092778;28;20407;-53
2022/04/22 13:56:43;;;;;;;16.85;14.80;;;21.10;99.90;;;;;;5093009;28;20409;-53
2022/04/22 13:59:09;;;;;;;18.27;14.30;;;21.20;99.90;;;;;;5092154;28;20378;-53
2022/04/22 14:01:36;;;;;;;15.87;14.17;;;21.40;99.90;;;;;;5092649;28;20373;-53